createdAt,value
2023-04-17T00:01:28.481Z,33.71
2023-04-17T00:03:58.605Z,33.73
2023-04-17T00:06:27.898Z,33.77
2023-04-17T00:08:56.826Z,33.75
2023-04-17T00:11:26.828Z,33.81
2023-04-17T00:13:55.902Z,33.58
2023-04-17T00:16:24.911Z,33.54
2023-04-17T00:18:54.738Z,33.62
2023-04-17T00:21:23.741Z,33.73
2023-04-17T00:23:52.618Z,33.61
2023-04-17T00:26:21.474Z,33.07
2023-04-17T00:28:52.352Z,32.79
2023-04-17T00:31:21.380Z,32.73
2023-04-17T00:33:50.480Z,32.46
2023-04-17T00:36:19.292Z,32.35
2023-04-17T00:38:48.164Z,32.32
2023-04-17T00:41:17.163Z,32.31
2023-04-17T00:43:46.012Z,32.34
2023-04-17T00:46:14.985Z,32.24
2023-04-17T00:48:44.804Z,31.49
2023-04-17T00:51:13.630Z,31.55
2023-04-17T00:53:42.854Z,31.68
2023-04-17T00:56:12.407Z,31.66
2023-04-17T00:58:41.672Z,31.44
2023-04-17T01:01:11.165Z,31.50
2023-04-17T01:03:40.524Z,31.14
2023-04-17T01:06:09.950Z,31.30
2023-04-17T01:08:43.989Z,30.92
2023-04-17T01:11:13.384Z,30.54
2023-04-17T01:13:50.490Z,30.53
2023-04-17T01:16:20.694Z,29.30
2023-04-17T01:18:49.962Z,29.39
2023-04-17T01:21:18.938Z,28.95
2023-04-17T01:23:52.659Z,28.79
2023-04-17T01:26:24.976Z,28.68
2023-04-17T01:29:00.362Z,28.19
2023-04-17T01:31:32.027Z,27.74
2023-04-17T01:34:01.817Z,27.82
2023-04-17T01:36:30.877Z,27.35
2023-04-17T01:38:59.760Z,27.08
2023-04-17T01:41:28.613Z,27.10
2023-04-17T01:43:57.441Z,25.79
2023-04-17T01:46:26.480Z,25.36
2023-04-17T01:48:57.606Z,25.65
2023-04-17T01:51:26.530Z,24.85
2023-04-17T01:53:55.384Z,24.64
2023-04-17T01:56:24.333Z,23.74
2023-04-17T01:58:53.432Z,23.56
2023-04-17T02:01:22.976Z,23.42
2023-04-17T02:03:52.511Z,23.43
2023-04-17T02:06:21.917Z,22.31
2023-04-17T02:08:50.847Z,21.93
2023-04-17T02:11:19.617Z,22.26
2023-04-17T02:13:53.314Z,21.23
2023-04-17T02:16:23.109Z,20.82
2023-04-17T02:18:52.746Z,21.21
2023-04-17T02:21:22.194Z,21.56
2023-04-17T02:23:51.228Z,21.47
2023-04-17T02:26:20.343Z,20.19
2023-04-17T02:28:49.153Z,19.76
2023-04-17T02:31:18.562Z,19.42
2023-04-17T02:33:47.947Z,20.08
2023-04-17T02:36:17.273Z,19.96
2023-04-17T02:38:47.348Z,19.60
2023-04-17T02:41:16.345Z,18.63
2023-04-17T02:43:47.663Z,18.37
2023-04-17T02:46:18.946Z,18.94
2023-04-17T02:48:47.980Z,18.45
2023-04-17T02:51:16.879Z,18.69
2023-04-17T02:53:46.583Z,18.71
2023-04-17T02:56:15.515Z,18.70
2023-04-17T02:58:47.303Z,18.28
2023-04-17T03:01:17.397Z,18.16
2023-04-17T03:03:48.403Z,17.71
2023-04-17T03:06:17.494Z,17.04
2023-04-17T03:08:46.406Z,17.77
2023-04-17T03:11:15.288Z,16.95
2023-04-17T03:13:44.527Z,17.22
2023-04-17T03:16:15.630Z,16.86
2023-04-17T03:18:47.448Z,16.20
2023-04-17T03:21:16.285Z,16.62
2023-04-17T03:23:45.254Z,16.40
2023-04-17T03:26:15.025Z,16.53
2023-04-17T03:28:44.019Z,16.52
2023-04-17T03:31:12.855Z,16.69
2023-04-17T03:33:41.987Z,16.48
2023-04-17T03:36:11.981Z,16.20
2023-04-17T03:38:41.358Z,15.53
2023-04-17T03:41:10.933Z,14.92
2023-04-17T03:43:40.242Z,14.85
2023-04-17T03:46:11.461Z,15.45
2023-04-17T03:48:41.191Z,15.63
2023-04-17T03:51:10.082Z,15.50
2023-04-17T03:53:40.202Z,14.57
2023-04-17T03:56:12.496Z,14.64
2023-04-17T03:58:44.089Z,14.79
2023-04-17T04:01:17.326Z,14.70
2023-04-17T04:04:06.505Z,14.85
2023-04-17T04:06:36.012Z,14.05
2023-04-17T04:09:05.126Z,14.39
2023-04-17T04:11:33.982Z,14.03
2023-04-17T04:14:02.867Z,14.15
2023-04-17T04:16:32.357Z,14.83
2023-04-17T04:19:13.086Z,15.59
2023-04-17T04:21:42.864Z,15.66
2023-04-17T04:24:15.051Z,15.05
2023-04-17T04:26:47.830Z,14.27
2023-04-17T04:29:17.442Z,13.83
2023-04-17T04:32:01.735Z,13.89
2023-04-17T04:34:36.984Z,13.76
2023-04-17T04:37:05.816Z,13.50
2023-04-17T04:39:43.572Z,13.58
2023-04-17T04:42:22.451Z,14.49
2023-04-17T04:45:14.616Z,15.31
2023-04-17T04:47:45.553Z,16.33
2023-04-17T04:50:14.551Z,16.95
2023-04-17T04:52:43.403Z,16.74
2023-04-17T04:55:27.285Z,15.65
2023-04-17T04:57:58.152Z,14.60
2023-04-17T05:00:28.578Z,14.32
2023-04-17T05:03:00.170Z,15.10
2023-04-17T05:05:31.206Z,16.04
2023-04-17T05:08:00.474Z,16.60
2023-04-17T05:10:32.854Z,17.04
2023-04-17T05:13:05.422Z,17.16
2023-04-17T05:15:34.663Z,18.05
2023-04-17T05:18:04.697Z,18.05
2023-04-17T05:20:38.218Z,17.54
2023-04-17T05:23:07.683Z,16.04
2023-04-17T05:25:36.659Z,15.15
2023-04-17T05:28:08.563Z,14.33
2023-04-17T05:30:37.457Z,13.83
2023-04-17T05:33:15.128Z,13.86
2023-04-17T05:35:55.422Z,13.69
2023-04-17T05:38:25.699Z,14.18
2023-04-17T05:40:54.638Z,14.21
2023-04-17T05:43:23.616Z,13.18
2023-04-17T05:45:54.960Z,12.92
2023-04-17T05:48:23.833Z,12.97
2023-04-17T05:50:53.880Z,12.87
2023-04-17T05:53:22.792Z,11.36
2023-04-17T05:55:55.974Z,11.47
2023-04-17T05:58:26.585Z,12.17
2023-04-17T06:00:59.661Z,12.13
2023-04-17T06:03:30.939Z,12.23
2023-04-17T06:06:11.358Z,11.95
2023-04-17T06:08:40.439Z,12.14
2023-04-17T06:11:09.492Z,12.23
2023-04-17T06:13:38.683Z,12.18
2023-04-17T06:16:07.668Z,11.60
2023-04-17T06:18:36.612Z,11.48
2023-04-17T06:21:05.821Z,11.88
2023-04-17T06:23:34.674Z,11.75
2023-04-17T06:26:03.550Z,11.88
2023-04-17T06:28:32.855Z,11.37
2023-04-17T06:31:02.593Z,11.38
2023-04-17T06:33:31.482Z,11.80
2023-04-17T06:36:00.466Z,11.82
2023-04-17T06:38:49.728Z,11.40
2023-04-17T06:41:21.408Z,11.55
2023-04-17T06:43:50.389Z,11.62
2023-04-17T06:46:19.364Z,11.72
2023-04-17T06:48:49.952Z,11.75
2023-04-17T06:51:22.363Z,12.16
2023-04-17T06:53:54.006Z,12.51
2023-04-17T06:56:25.056Z,12.15
2023-04-17T06:58:54.935Z,12.50
2023-04-17T07:01:24.620Z,12.45
2023-04-17T07:03:53.757Z,12.96
2023-04-17T07:06:23.927Z,12.82
2023-04-17T07:08:55.454Z,12.93
2023-04-17T07:11:24.906Z,12.26
2023-04-17T07:13:53.924Z,12.54
2023-04-17T07:16:25.720Z,12.65
2023-04-17T07:18:54.641Z,11.86
2023-04-17T07:21:23.438Z,12.53
2023-04-17T07:23:52.242Z,12.44
2023-04-17T07:26:21.325Z,12.20
2023-04-17T07:28:50.613Z,12.49
2023-04-17T07:31:20.393Z,12.42
2023-04-17T07:33:49.217Z,12.53
2023-04-17T07:36:18.155Z,12.84
2023-04-17T07:38:47.051Z,12.75
2023-04-17T07:41:16.038Z,12.72
2023-04-17T07:43:44.921Z,12.52
2023-04-17T07:46:14.089Z,12.83
2023-04-17T07:48:43.037Z,13.34
2023-04-17T07:51:12.127Z,14.02
2023-04-17T07:53:41.022Z,14.19
2023-04-17T07:56:11.233Z,14.11
2023-04-17T07:58:42.596Z,13.90
2023-04-17T08:01:12.794Z,13.80
2023-04-17T08:03:42.293Z,14.04
2023-04-17T08:06:12.026Z,14.01
2023-04-17T08:08:41.331Z,13.83
2023-04-17T08:11:10.094Z,13.42
2023-04-17T08:13:38.994Z,13.53
2023-04-17T08:16:08.981Z,13.92
2023-04-17T08:18:42.550Z,14.60
2023-04-17T08:21:11.403Z,15.70
2023-04-17T08:23:42.374Z,16.04
2023-04-17T08:26:11.552Z,17.11
2023-04-17T08:28:40.365Z,17.56
2023-04-17T08:31:10.933Z,18.92
2023-04-17T08:33:39.861Z,18.85
2023-04-17T08:36:10.465Z,19.17
2023-04-17T08:38:39.452Z,19.27
2023-04-17T08:41:10.705Z,19.05
2023-04-17T08:43:42.164Z,19.14
2023-04-17T08:46:11.710Z,19.13
2023-04-17T08:48:40.657Z,19.29
2023-04-17T08:51:09.484Z,19.20
2023-04-17T08:53:38.595Z,19.18
2023-04-17T08:56:09.260Z,19.38
2023-04-17T08:58:38.244Z,19.47
2023-04-17T09:01:13.554Z,19.41
2023-04-17T09:03:44.957Z,20.08
2023-04-17T09:06:15.959Z,19.46
2023-04-17T09:09:05.498Z,20.00
2023-04-17T09:11:34.371Z,20.00
2023-04-17T09:14:03.236Z,20.34
2023-04-17T09:16:32.264Z,20.01
2023-04-17T09:19:08.432Z,20.29
2023-04-17T09:21:37.282Z,20.27
2023-04-17T09:24:07.586Z,20.09
2023-04-17T09:26:37.661Z,20.21
2023-04-17T09:29:11.310Z,20.13
2023-04-17T09:31:43.511Z,20.29
2023-04-17T09:34:14.157Z,20.56
2023-04-17T09:36:44.336Z,20.68
2023-04-17T09:39:21.184Z,20.63
2023-04-17T09:41:49.980Z,20.49
2023-04-17T09:44:30.676Z,20.49
2023-04-17T09:47:01.750Z,20.61
2023-04-17T09:49:53.546Z,20.84
2023-04-17T09:52:24.217Z,20.95
2023-04-17T09:54:54.978Z,20.92
2023-04-17T09:57:23.960Z,21.12
2023-04-17T09:59:53.380Z,21.27
2023-04-17T10:02:23.444Z,21.19
2023-04-17T10:04:53.355Z,20.98
2023-04-17T10:07:22.169Z,21.13
2023-04-17T10:09:51.441Z,21.28
2023-04-17T10:12:22.017Z,21.15
2023-04-17T10:14:52.995Z,21.52
2023-04-17T10:17:32.137Z,21.53
2023-04-17T10:20:16.195Z,21.60
2023-04-17T10:22:45.747Z,21.36
2023-04-17T10:25:14.668Z,21.54
2023-04-17T10:27:46.691Z,21.67
2023-04-17T10:30:16.097Z,21.74
2023-04-17T10:33:09.233Z,21.77
2023-04-17T10:35:38.692Z,21.81
2023-04-17T10:38:08.691Z,21.91
2023-04-17T10:40:39.192Z,22.18
2023-04-17T10:43:23.047Z,22.58
2023-04-17T10:46:10.512Z,22.75
2023-04-17T10:48:47.092Z,22.73
2023-04-17T10:51:22.068Z,22.57
2023-04-17T10:54:02.146Z,22.91
2023-04-17T10:56:39.155Z,23.74
2023-04-17T10:59:13.164Z,23.91
2023-04-17T11:01:49.249Z,23.58
2023-04-17T11:04:25.930Z,24.22
2023-04-17T11:06:56.153Z,24.23
2023-04-17T11:09:27.280Z,24.26
2023-04-17T11:12:02.249Z,23.89
2023-04-17T11:14:32.751Z,24.19
2023-04-17T11:17:02.469Z,23.85
2023-04-17T11:19:34.138Z,23.89
2023-04-17T11:22:04.340Z,24.50
2023-04-17T11:24:33.536Z,24.19
2023-04-17T11:27:04.176Z,24.45
2023-04-17T11:29:33.164Z,24.44
2023-04-17T11:32:02.115Z,24.28
2023-04-17T11:34:31.360Z,24.62
2023-04-17T11:37:01.932Z,24.25
2023-04-17T11:39:33.410Z,24.74
2023-04-17T11:42:05.713Z,24.40
2023-04-17T11:44:34.738Z,24.77
2023-04-17T11:47:04.559Z,24.80
2023-04-17T11:49:38.208Z,25.23
2023-04-17T11:52:07.272Z,25.41
2023-04-17T11:54:38.051Z,25.82
2023-04-17T11:57:17.061Z,25.25
2023-04-17T11:59:46.654Z,25.50
2023-04-17T12:02:17.340Z,25.72
2023-04-17T12:04:46.779Z,26.02
2023-04-17T12:07:25.145Z,26.20
2023-04-17T12:09:58.238Z,25.93
2023-04-17T12:12:27.836Z,26.00
2023-04-17T12:14:56.734Z,25.89
2023-04-17T12:17:25.949Z,26.01
2023-04-17T12:19:54.937Z,25.99
2023-04-17T12:22:24.023Z,26.28
2023-04-17T12:24:52.992Z,26.04
2023-04-17T12:27:23.334Z,26.78
2023-04-17T12:29:52.244Z,26.87
2023-04-17T12:32:21.458Z,26.63
2023-04-17T12:34:52.652Z,26.85
2023-04-17T12:37:21.606Z,26.50
2023-04-17T12:39:52.690Z,27.03
2023-04-17T12:42:25.856Z,27.18
2023-04-17T12:44:54.797Z,27.51
2023-04-17T12:47:23.769Z,27.49
2023-04-17T12:49:52.666Z,27.39
2023-04-17T12:52:21.677Z,27.14
2023-04-17T12:54:52.181Z,27.46
2023-04-17T12:57:21.389Z,27.11
2023-04-17T12:59:50.688Z,27.57
2023-04-17T13:02:21.776Z,27.42
2023-04-17T13:04:53.549Z,27.46
2023-04-17T13:07:22.933Z,27.90
2023-04-17T13:09:51.951Z,27.52
2023-04-17T13:12:20.793Z,27.92
2023-04-17T13:14:49.872Z,27.97
2023-04-17T13:17:19.422Z,27.71
2023-04-17T13:19:48.391Z,27.75
2023-04-17T13:22:18.345Z,27.62
2023-04-17T13:24:47.637Z,28.37
2023-04-17T13:27:16.595Z,28.08
2023-04-17T13:29:45.575Z,28.17
2023-04-17T13:32:14.787Z,27.70
2023-04-17T13:34:43.721Z,27.76
2023-04-17T13:37:12.776Z,27.81
2023-04-17T13:39:41.923Z,28.07
2023-04-17T13:42:11.948Z,27.73
2023-04-17T13:44:40.796Z,27.78
2023-04-17T13:47:09.763Z,28.15
2023-04-17T13:49:38.592Z,27.66
2023-04-17T13:52:07.975Z,27.89
2023-04-17T13:54:36.954Z,27.63
2023-04-17T13:57:07.055Z,28.03
2023-04-17T13:59:36.430Z,27.90
2023-04-17T14:02:05.923Z,28.04
2023-04-17T14:04:35.252Z,27.77
2023-04-17T14:07:04.861Z,27.82
2023-04-17T14:09:33.748Z,28.01
2023-04-17T14:12:02.925Z,28.31
2023-04-17T14:14:31.810Z,27.95
2023-04-17T14:17:00.802Z,28.49
2023-04-17T14:19:29.771Z,28.82
2023-04-17T14:21:58.621Z,28.08
2023-04-17T14:24:27.526Z,28.26
2023-04-17T14:26:58.200Z,28.78
2023-04-17T14:29:28.072Z,28.93
2023-04-17T14:31:56.984Z,28.53
2023-04-17T14:34:25.969Z,28.57
2023-04-17T14:36:56.250Z,28.61
2023-04-17T14:39:27.923Z,29.18
2023-04-17T14:41:59.563Z,28.93
2023-04-17T14:44:30.319Z,29.12
2023-04-17T14:46:59.202Z,29.22
2023-04-17T14:49:30.901Z,29.09
2023-04-17T14:51:59.667Z,28.65
2023-04-17T14:54:28.701Z,29.16
2023-04-17T14:56:58.666Z,28.84
2023-04-17T14:59:28.969Z,28.75
2023-04-17T15:01:59.091Z,29.49
2023-04-17T15:04:28.412Z,29.43
2023-04-17T15:06:57.360Z,29.11
2023-04-17T15:09:26.349Z,29.26
2023-04-17T15:11:55.308Z,29.43
2023-04-17T15:14:24.223Z,29.32
2023-04-17T15:16:58.102Z,29.27
2023-04-17T15:19:28.941Z,29.16
2023-04-17T15:21:57.903Z,29.30
2023-04-17T15:24:26.765Z,29.10
2023-04-17T15:26:57.089Z,28.81
2023-04-17T15:29:25.954Z,29.13
2023-04-17T15:31:55.028Z,29.40
2023-04-17T15:34:24.069Z,29.09
2023-04-17T15:36:52.960Z,28.88
2023-04-17T15:39:21.910Z,28.84
2023-04-17T15:41:51.278Z,29.00
2023-04-17T15:44:20.560Z,28.91
2023-04-17T15:46:49.365Z,29.44
2023-04-17T15:49:18.358Z,29.32
2023-04-17T15:51:47.252Z,28.81
2023-04-17T15:54:16.140Z,29.47
2023-04-17T15:56:44.992Z,28.91
2023-04-17T15:59:13.995Z,29.26
2023-04-17T16:01:44.188Z,29.51
2023-04-17T16:04:13.575Z,29.17
2023-04-17T16:06:42.661Z,29.29
2023-04-17T16:09:12.978Z,29.29
2023-04-17T16:11:41.883Z,29.33
2023-04-17T16:14:10.722Z,29.57
2023-04-17T16:16:39.549Z,29.52
2023-04-17T16:19:08.949Z,29.55
2023-04-17T16:21:38.778Z,29.36
2023-04-17T16:24:07.829Z,29.12
2023-04-17T16:26:37.551Z,29.38
2023-04-17T16:29:06.362Z,29.69
2023-04-17T16:31:35.241Z,29.56
2023-04-17T16:34:04.054Z,29.33
2023-04-17T16:36:33.364Z,29.41
2023-04-17T16:39:04.165Z,29.19
2023-04-17T16:41:33.006Z,29.50
2023-04-17T16:44:01.998Z,30.08
2023-04-17T16:46:40.301Z,30.05
2023-04-17T16:49:19.895Z,29.89
2023-04-17T16:51:50.864Z,30.46
2023-04-17T16:54:22.086Z,30.33
2023-04-17T16:56:51.571Z,30.44
2023-04-17T16:59:20.748Z,30.20
2023-04-17T17:01:50.685Z,30.03
2023-04-17T17:04:19.722Z,30.42
2023-04-17T17:06:48.618Z,30.33
2023-04-17T17:09:17.487Z,30.18
2023-04-17T17:11:46.388Z,30.11
2023-04-17T17:14:16.609Z,30.69
2023-04-17T17:16:45.546Z,30.65
2023-04-17T17:19:15.336Z,30.50
2023-04-17T17:21:44.383Z,30.70
2023-04-17T17:24:13.190Z,30.73
2023-04-17T17:26:42.084Z,30.81
2023-04-17T17:29:11.126Z,30.34
2023-04-17T17:31:40.253Z,30.62
2023-04-17T17:36:45.373Z,30.84
2023-04-17T17:39:14.510Z,30.87
2023-04-17T17:41:45.214Z,30.94
2023-04-17T17:44:16.361Z,31.02
2023-04-17T17:46:45.391Z,31.16
2023-04-17T17:49:14.384Z,30.81
2023-04-17T17:51:45.429Z,31.12
2023-04-17T17:54:14.606Z,31.13
2023-04-17T17:56:43.595Z,30.78
2023-04-17T17:59:12.403Z,31.10
2023-04-17T18:01:42.033Z,30.91
2023-04-17T18:04:11.250Z,31.26
2023-04-17T18:06:41.508Z,30.99
2023-04-17T18:09:10.472Z,30.82
2023-04-17T18:11:39.413Z,30.80
2023-04-17T18:14:08.494Z,30.76
2023-04-17T18:16:38.103Z,31.32
2023-04-17T18:19:07.305Z,30.76
2023-04-17T18:21:36.447Z,31.38
2023-04-17T18:24:05.811Z,31.34
2023-04-17T18:26:34.742Z,31.45
2023-04-17T18:29:03.629Z,30.86
2023-04-17T18:31:32.463Z,31.17
2023-04-17T18:34:03.078Z,31.19
2023-04-17T18:36:31.828Z,31.43
2023-04-17T18:39:00.748Z,31.12
2023-04-17T18:41:29.579Z,31.19
2023-04-17T18:43:58.589Z,31.58
2023-04-17T18:46:30.853Z,31.37
2023-04-17T18:48:59.667Z,31.12
2023-04-17T18:51:28.469Z,30.88
2023-04-17T18:53:57.531Z,31.09
2023-04-17T18:56:26.480Z,31.03
2023-04-17T18:58:55.256Z,31.53
2023-04-17T19:01:24.657Z,30.98
2023-04-17T19:03:53.789Z,31.48
2023-04-17T19:06:22.687Z,31.38
2023-04-17T19:08:51.993Z,31.64
2023-04-17T19:11:21.413Z,31.57
2023-04-17T19:13:50.526Z,31.49
2023-04-17T19:16:19.364Z,31.71
2023-04-17T19:18:48.257Z,31.53
2023-04-17T19:21:17.610Z,31.51
2023-04-17T19:23:48.024Z,31.63
2023-04-17T19:26:17.948Z,31.89
2023-04-17T19:28:46.883Z,31.90
2023-04-17T19:31:16.111Z,32.48
2023-04-17T19:33:45.143Z,32.42
2023-04-17T19:36:14.089Z,31.94
2023-04-17T19:38:42.917Z,32.00
2023-04-17T19:41:18.771Z,32.57
2023-04-17T19:43:51.976Z,31.98
2023-04-17T19:46:22.201Z,32.49
2023-04-17T19:48:51.467Z,32.44
2023-04-17T19:51:20.290Z,32.74
2023-04-17T19:53:49.287Z,32.76
2023-04-17T19:56:18.127Z,32.42
2023-04-17T19:58:47.546Z,32.88
2023-04-17T20:01:17.494Z,32.52
2023-04-17T20:03:46.665Z,32.69
2023-04-17T20:06:15.680Z,33.09
2023-04-17T20:08:44.543Z,32.83
2023-04-17T20:11:14.355Z,33.09
2023-04-17T20:13:43.741Z,32.41
2023-04-17T20:16:12.526Z,32.69
2023-04-17T20:18:42.318Z,33.00
2023-04-17T20:21:12.664Z,33.12
2023-04-17T20:23:41.948Z,32.96
2023-04-17T20:26:11.749Z,32.66
2023-04-17T20:28:40.810Z,32.73
2023-04-17T20:31:09.644Z,32.68
2023-04-17T20:33:38.590Z,32.56
2023-04-17T20:36:07.547Z,32.86
2023-04-17T20:38:36.271Z,32.27
2023-04-17T20:41:05.357Z,32.57
2023-04-17T20:43:34.185Z,32.68
2023-04-17T20:46:03.397Z,32.70
2023-04-17T20:48:32.254Z,32.39
2023-04-17T20:51:06.385Z,32.29
2023-04-17T20:53:35.285Z,32.58
2023-04-17T20:56:04.398Z,32.14
2023-04-17T20:58:33.217Z,32.25
2023-04-17T21:01:03.563Z,32.15
2023-04-17T21:03:33.741Z,32.59
2023-04-17T21:06:02.830Z,32.69
2023-04-17T21:08:31.648Z,33.11
2023-04-17T21:11:01.085Z,33.01
2023-04-17T21:13:31.539Z,33.12
2023-04-17T21:16:00.323Z,33.25
2023-04-17T21:18:29.196Z,33.47
2023-04-17T21:20:58.131Z,33.45
2023-04-17T21:23:26.913Z,33.52
2023-04-17T21:25:56.223Z,34.09
2023-04-17T21:28:24.959Z,34.49
2023-04-17T21:30:53.733Z,33.95
2023-04-17T21:33:22.583Z,34.87
2023-04-17T21:35:51.368Z,34.32
2023-04-17T21:38:20.226Z,34.47
2023-04-17T21:40:51.311Z,34.28
2023-04-17T21:43:20.893Z,34.91
2023-04-17T21:45:50.472Z,34.77
2023-04-17T21:48:19.342Z,34.41
2023-04-17T21:50:48.218Z,34.56
2023-04-17T21:53:16.986Z,34.97
2023-04-17T21:55:45.862Z,35.02
2023-04-17T21:58:14.653Z,34.64
2023-04-17T22:00:44.313Z,34.56
2023-04-17T22:03:13.459Z,34.76
2023-04-17T22:05:42.751Z,34.27
2023-04-17T22:08:11.792Z,34.35
2023-04-17T22:10:40.517Z,35.72
2023-04-17T22:13:09.539Z,35.72
2023-04-17T22:15:38.438Z,35.80
2023-04-17T22:18:07.636Z,36.25
2023-04-17T22:20:54.907Z,35.85
2023-04-17T22:24:00.698Z,36.00
2023-04-17T22:27:06.602Z,36.57
2023-04-17T22:30:30.543Z,36.49
2023-04-17T22:33:36.051Z,36.18
2023-04-17T22:36:42.095Z,36.45
2023-04-17T22:39:48.211Z,36.40
2023-04-17T22:42:17.101Z,36.36
2023-04-17T22:45:23.290Z,36.46
2023-04-17T22:48:10.521Z,36.09
2023-04-17T22:51:16.757Z,36.38
2023-04-17T22:54:23.329Z,36.17
2023-04-17T22:57:30.094Z,35.82
2023-04-17T23:01:13.833Z,36.23
2023-04-17T23:04:37.910Z,35.65
2023-04-17T23:08:02.265Z,35.72
2023-04-17T23:11:00.616Z,35.74
2023-04-17T23:13:30.139Z,36.22
2023-04-17T23:15:59.548Z,35.60
2023-04-17T23:18:28.458Z,36.29
2023-04-17T23:20:57.341Z,36.23
2023-04-17T23:23:26.868Z,36.62
2023-04-17T23:25:55.838Z,35.99
2023-04-17T23:28:30.846Z,36.16
2023-04-17T23:30:59.768Z,36.66
2023-04-17T23:33:28.704Z,37.05
2023-04-17T23:35:57.600Z,37.55
2023-04-17T23:38:26.461Z,38.22
2023-04-17T23:40:55.446Z,39.29
2023-04-17T23:43:24.292Z,40.23
2023-04-17T23:45:53.208Z,41.10
2023-04-17T23:48:22.147Z,41.43
2023-04-17T23:50:51.406Z,41.33
2023-04-17T23:53:20.390Z,40.99
2023-04-17T23:55:49.272Z,41.22
2023-04-17T23:58:18.211Z,41.39
